Time;durP1;ratioP1;P1;durP2;ratioP2;P2;SDS_P1;SDS_P2;PMS_P1;PMS_P2;Temp;Humidity;BMP_temperature;BMP_pressure;BME280_temperature;BME280_humidity;BME280_pressure;Samples;Min_cycle;Max_cycle;Signal;HPM_P1;HPM_P2
2022/05/18 00:01:39;;;;;;;4.93;4.43;;;;;;;16.90;66.37;100662.88;5051968;27;103779;-50
2022/05/18 00:04:06;;;;;;;4.35;4.05;;;;;;;16.90;66.94;100656.56;5050821;27;102435;-48
2022/05/18 00:06:34;;;;;;;4.75;4.10;;;;;;;16.91;66.52;100652.69;5050389;27;102005;-47
2022/05/18 00:09:00;;;;;;;5.03;4.53;;;;;;;16.90;66.34;100637.31;5051816;27;102575;-47
2022/05/18 00:11:28;;;;;;;4.68;4.25;;;;;;;16.90;66.66;100635.38;5049318;27;103904;-48
2022/05/18 00:13:59;;;;;;;4.00;3.70;;;;;;;16.89;66.72;100633.78;5049971;27;102447;-48
2022/05/18 00:16:27;;;;;;;3.90;3.60;;;;;;;16.89;66.90;100628.28;5051677;27;101950;-47
2022/05/18 00:18:54;;;;;;;4.35;3.95;;;;;;;16.89;66.90;100628.28;5053113;27;102263;-47
2022/05/18 00:21:21;;;;;;;4.70;4.30;;;;;;;16.90;66.83;100624.38;5050440;27;104099;-49
2022/05/18 00:23:48;;;;;;;4.32;3.80;;;;;;;16.90;66.51;100618.91;5050754;27;102259;-48
2022/05/18 00:26:16;;;;;;;4.65;3.80;;;;;;;16.90;66.29;100624.38;5051288;27;102276;-48
2022/05/18 00:28:45;;;;;;;4.35;3.95;;;;;;;16.89;66.70;100617.28;5053413;27;102132;-49
2022/05/18 00:31:14;;;;;;;4.13;3.72;;;;;;;16.89;66.82;100610.97;5049928;27;104053;-47
2022/05/18 00:33:41;;;;;;;4.60;4.18;;;;;;;16.90;66.72;100612.59;5051680;27;102324;-47
2022/05/18 00:36:08;;;;;;;3.75;3.45;;;;;;;16.90;66.46;100610.66;5052140;27;101915;-48
2022/05/18 00:38:34;;;;;;;4.18;3.78;;;;;;;16.90;66.70;100607.09;5052775;27;102666;-48
2022/05/18 00:41:01;;;;;;;3.95;3.55;;;;;;;16.90;66.67;100601.59;5049598;27;104673;-48
2022/05/18 00:43:41;;;;;;;4.15;3.50;;;;;;;16.89;66.98;100603.53;5050209;27;102142;-47
2022/05/18 00:46:12;;;;;;;4.32;3.50;;;;;;;16.90;66.44;100602.41;5040754;27;102378;-48
2022/05/18 00:48:38;;;;;;;4.40;4.00;;;;;;;16.90;66.54;100596.91;5051820;27;101958;-51
2022/05/18 00:51:09;;;;;;;4.05;3.75;;;;;;;16.91;66.79;100597.72;5049442;27;103874;-47
2022/05/18 00:53:41;;;;;;;5.28;4.03;;;;;;;16.90;66.56;100601.59;5051059;27;101998;-47
2022/05/18 00:56:14;;;;;;;3.90;3.60;;;;;;;16.90;66.61;100607.09;5051853;27;102777;-49
2022/05/18 00:58:45;;;;;;;3.92;3.63;;;;;;;16.90;66.41;100605.16;5052913;27;102150;-48
2022/05/18 01:01:14;;;;;;;4.57;4.13;;;;;;;16.89;66.91;100600.78;5050890;27;104106;-47
2022/05/18 01:03:44;;;;;;;4.85;3.88;;;;;;;16.89;66.98;100587.03;5050498;27;101972;-50
2022/05/18 01:06:17;;;;;;;3.83;3.53;;;;;;;16.88;66.77;100588.19;5050490;27;102346;-48
2022/05/18 01:08:50;;;;;;;5.40;3.40;;;;;;;16.88;66.54;100588.19;5050640;27;102236;-48
2022/05/18 01:11:17;;;;;;;4.20;3.80;;;;;;;16.88;66.86;100588.19;5029057;27;103896;-50
2022/05/18 01:13:46;;;;;;;4.15;3.78;;;;;;;16.88;66.68;100581.84;5040802;27;102166;-48
2022/05/18 01:16:15;;;;;;;3.70;3.40;;;;;;;16.88;66.71;100582.69;5051727;27;102125;-49
2022/05/18 01:18:42;;;;;;;3.75;3.45;;;;;;;16.86;66.19;100578.63;5052895;27;102301;-50
2022/05/18 01:21:09;;;;;;;4.15;3.85;;;;;;;16.85;66.41;100572.31;5051020;27;103941;-47
2022/05/18 01:23:46;;;;;;;3.80;3.50;;;;;;;16.86;66.51;100576.69;5050820;27;102148;-50
2022/05/18 01:26:18;;;;;;;3.67;3.38;;;;;;;16.85;66.31;100577.81;5049767;27;102139;-47
2022/05/18 01:28:51;;;;;;;4.50;3.50;;;;;;;16.85;66.54;100575.06;5051150;27;102533;-49
2022/05/18 01:31:18;;;;;;;3.83;3.53;;;;;;;16.85;66.60;100575.06;5050940;27;103969;-48
2022/05/18 01:33:46;;;;;;;3.65;3.13;;;;;;;16.85;66.02;100575.06;5051152;27;102318;-50
2022/05/18 01:36:12;;;;;;;3.63;3.33;;;;;;;16.84;66.31;100576.19;5053293;27;102280;-48
2022/05/18 01:38:39;;;;;;;4.15;3.75;;;;;;;16.84;66.28;100570.69;5055360;27;102435;-47
2022/05/18 01:41:14;;;;;;;3.42;3.17;;;;;;;16.83;66.38;100563.56;5054028;27;103883;-47
2022/05/18 01:43:46;;;;;;;3.80;3.50;;;;;;;16.84;66.20;100567.13;5052669;27;102161;-48
2022/05/18 01:46:16;;;;;;;3.63;3.33;;;;;;;16.83;66.52;100574.56;5054812;27;102272;-47
2022/05/18 01:48:45;;;;;;;3.60;3.30;;;;;;;16.83;65.87;100574.56;5056057;27;102840;-48
2022/05/18 01:51:15;;;;;;;3.30;3.03;;;;;;;16.81;66.10;100571.34;5054327;27;104034;-47
2022/05/18 01:53:41;;;;;;;5.47;3.38;;;;;;;16.82;65.90;100575.69;5051957;27;102432;-48
2022/05/18 01:56:09;;;;;;;3.45;3.15;;;;;;;16.82;65.94;100578.44;5051646;27;102312;-49
2022/05/18 01:58:35;;;;;;;3.00;2.70;;;;;;;16.81;65.88;100582.31;5055431;27;102156;-48
2022/05/18 02:01:04;;;;;;;3.40;3.10;;;;;;;16.80;65.54;100578.78;5050776;27;103783;-47
2022/05/18 02:03:32;;;;;;;;;;;;;;;16.80;65.79;100578.78;5052851;27;102165;-48
2022/05/18 02:05:59;;;;;;;3.22;2.92;;;;;;;16.80;65.33;100586.19;5053704;27;102189;-49
2022/05/18 02:08:25;;;;;;;3.45;3.15;;;;;;;16.79;65.34;100590.06;5054726;27;102080;-47
2022/05/18 02:10:53;;;;;;;3.50;3.20;;;;;;;16.79;65.32;100585.38;5054130;27;103904;-48
2022/05/18 02:13:20;;;;;;;3.67;3.20;;;;;;;16.80;65.80;100591.69;5053829;27;101966;-48
2022/05/18 02:15:47;;;;;;;3.20;2.97;;;;;;;16.80;65.67;100597.16;5053302;27;102442;-47
2022/05/18 02:18:13;;;;;;;3.63;3.33;;;;;;;16.80;65.43;100603.50;5055612;27;101955;-48
2022/05/18 02:20:42;;;;;;;3.20;2.90;;;;;;;16.81;65.59;100604.31;5053854;27;103961;-49
2022/05/18 02:23:09;;;;;;;2.93;2.70;;;;;;;16.81;65.61;100615.31;5052744;27;102306;-48
2022/05/18 02:25:37;;;;;;;2.88;2.67;;;;;;;16.80;65.75;100621.91;5054487;27;101979;-48
2022/05/18 02:28:05;;;;;;;3.93;2.57;;;;;;;16.80;65.49;100638.41;5055598;27;102120;-48
2022/05/18 02:30:34;;;;;;;3.00;2.70;;;;;;;16.79;65.58;100634.03;5053417;27;104014;-48
2022/05/18 02:33:01;;;;;;;4.80;2.85;;;;;;;16.79;65.06;100642.28;5052857;27;102316;-49
2022/05/18 02:35:28;;;;;;;3.60;2.63;;;;;;;16.78;65.53;100654.41;5053521;27;102629;-47
2022/05/18 02:37:56;;;;;;;4.88;2.80;;;;;;;16.79;64.96;100653.28;5047473;27;102100;-47
2022/05/18 02:40:23;;;;;;;2.90;2.67;;;;;;;16.78;65.34;100657.16;5053596;27;104279;-47
2022/05/18 02:42:49;;;;;;;3.60;2.72;;;;;;;16.77;65.41;100661.84;5052860;27;101968;-47
2022/05/18 02:45:16;;;;;;;2.42;2.22;;;;;;;16.76;65.21;100662.16;5053121;27;102008;-48
2022/05/18 02:47:43;;;;;;;3.10;2.70;;;;;;;16.75;65.06;100666.03;5053412;27;102161;-47
2022/05/18 02:50:09;;;;;;;2.45;2.25;;;;;;;16.76;64.59;100675.88;5049158;27;103863;-48
2022/05/18 02:52:38;;;;;;;3.45;2.70;;;;;;;16.76;64.99;100681.38;5054354;27;102024;-48
2022/05/18 02:57:54;;;;;;;3.45;2.50;;;;;;;16.76;64.51;100681.38;5053060;27;102110;-48
2022/05/18 03:00:20;;;;;;;2.88;2.53;;;;;;;16.76;65.10;100692.38;5052608;27;103439;-49
2022/05/18 03:02:47;;;;;;;3.35;2.30;;;;;;;16.75;65.00;100693.50;5050892;27;102247;-50
2022/05/18 03:05:13;;;;;;;3.17;2.55;;;;;;;16.75;64.72;100696.25;5051135;27;102587;-49
2022/05/18 03:07:40;;;;;;;3.25;2.40;;;;;;;16.73;64.36;100706.69;5054339;27;102554;-47
2022/05/18 03:10:09;;;;;;;2.80;2.28;;;;;;;16.74;64.49;100702.88;5050925;27;104096;-49
2022/05/18 03:12:37;;;;;;;2.63;2.10;;;;;;;16.74;64.48;100708.38;5052494;27;101995;-49
2022/05/18 03:15:04;;;;;;;3.38;2.42;;;;;;;16.74;64.13;100713.88;5051491;27;101866;-47
2022/05/18 03:17:31;;;;;;;4.28;2.20;;;;;;;16.74;64.57;100719.38;5052916;27;102926;-48
2022/05/18 03:20:00;;;;;;;3.30;2.40;;;;;;;16.74;64.19;100719.38;5053099;27;104054;-48
2022/05/18 03:25:13;;;;;;;2.83;2.22;;;;;;;16.74;64.43;100730.38;5053064;27;101786;-49
2022/05/18 03:27:41;;;;;;;3.28;2.15;;;;;;;16.74;63.67;100735.84;5050361;27;102503;-47
2022/05/18 03:30:10;;;;;;;2.58;2.35;;;;;;;16.73;63.94;100734.19;5052612;27;104105;-49
2022/05/18 03:32:39;;;;;;;2.15;2.05;;;;;;;16.71;64.07;100725.47;5051018;27;102087;-47
2022/05/18 03:35:08;;;;;;;2.55;2.08;;;;;;;16.70;63.70;100735.66;5052806;27;102429;-47
2022/05/18 03:37:34;;;;;;;2.35;2.15;;;;;;;16.69;63.56;100739.50;5053935;27;102103;-48
2022/05/18 03:40:03;;;;;;;2.45;2.13;;;;;;;16.67;63.04;100739.00;5051591;27;103934;-49
2022/05/18 03:42:31;;;;;;;2.33;1.90;;;;;;;16.66;63.31;100740.13;5051395;27;102065;-47
2022/05/18 03:44:58;;;;;;;2.90;2.00;;;;;;;16.68;63.36;100745.31;5052714;27;102004;-47
2022/05/18 03:47:24;;;;;;;4.53;2.22;;;;;;;16.68;63.58;100754.38;5053318;27;102580;-50
2022/05/18 03:49:51;;;;;;;2.38;2.17;;;;;;;16.68;62.64;100759.06;5050504;27;103915;-47
2022/05/18 03:52:19;;;;;;;4.03;2.28;;;;;;;16.69;62.71;100760.66;5051582;27;101857;-48
2022/05/18 03:54:45;;;;;;;3.53;2.30;;;;;;;16.69;63.53;100771.66;5043786;27;102116;-49
2022/05/18 03:57:12;;;;;;;2.90;2.10;;;;;;;16.68;63.27;100768.09;5051513;27;104141;-48
2022/05/18 03:59:41;;;;;;;2.78;2.00;;;;;;;16.67;63.40;100768.44;5052099;27;103874;-48
2022/05/18 04:02:07;;;;;;;2.35;1.90;;;;;;;16.69;62.85;100766.97;5051160;27;101836;-47
2022/05/18 04:04:34;;;;;;;3.20;2.30;;;;;;;16.67;63.23;100758.25;5052291;27;102263;-48
2022/05/18 04:07:01;;;;;;;2.92;2.10;;;;;;;16.67;63.27;100752.75;5052836;27;102115;-48
2022/05/18 04:09:27;;;;;;;3.00;2.70;;;;;;;16.68;63.25;100754.38;5051672;27;104067;-48
2022/05/18 04:11:54;;;;;;;3.80;2.03;;;;;;;16.67;63.83;100762.94;5052680;27;102016;-50
2022/05/18 04:14:20;;;;;;;2.72;1.90;;;;;;;16.67;63.01;100757.44;5049634;27;102261;-47
2022/05/18 04:16:49;;;;;;;2.83;2.20;;;;;;;16.67;63.73;100768.44;5053044;27;102063;-50
2022/05/18 04:19:16;;;;;;;2.33;2.03;;;;;;;16.67;63.43;100765.69;5051948;27;103893;-48
2022/05/18 04:21:42;;;;;;;3.78;2.08;;;;;;;16.65;63.03;100770.66;5052221;27;101887;-47
2022/05/18 04:24:09;;;;;;;3.33;1.90;;;;;;;16.64;63.19;100769.03;5050496;27;102464;-49
2022/05/18 04:26:36;;;;;;;2.40;1.92;;;;;;;16.63;62.37;100767.44;5052873;27;102130;-49
2022/05/18 04:29:02;;;;;;;2.10;1.90;;;;;;;16.64;62.29;100777.28;5037060;27;104484;-47
2022/05/18 04:31:29;;;;;;;2.25;2.00;;;;;;;16.64;62.41;100774.53;5046369;27;101910;-47
2022/05/18 04:33:57;;;;;;;3.35;1.90;;;;;;;16.64;62.79;100771.78;5050407;27;102283;-48
2022/05/18 04:36:23;;;;;;;2.45;1.83;;;;;;;16.61;61.86;100769.66;5049879;27;102181;-48
2022/05/18 04:38:50;;;;;;;2.45;1.90;;;;;;;16.61;61.83;100769.66;5047915;27;103924;-48
2022/05/18 04:41:17;;;;;;;4.00;1.67;;;;;;;16.60;61.24;100768.03;5051796;27;102383;-48
2022/05/18 04:43:44;;;;;;;3.78;2.00;;;;;;;16.58;61.18;100769.16;5049310;27;102169;-48
2022/05/18 04:46:10;;;;;;;6.30;2.10;;;;;;;16.58;61.14;100776.56;5052504;27;102414;-49
2022/05/18 04:48:37;;;;;;;3.50;1.98;;;;;;;16.56;61.22;100779.66;5050265;27;103856;-49
2022/05/18 04:51:05;;;;;;;2.30;2.10;;;;;;;16.56;60.81;100776.09;5050167;27;102351;-48
2022/05/18 04:53:34;;;;;;;1.90;1.67;;;;;;;16.57;60.44;100774.97;5050101;27;101940;-48
2022/05/18 04:56:01;;;;;;;3.17;1.77;;;;;;;16.57;60.91;100775.78;5052090;27;102179;-48
2022/05/18 04:58:27;;;;;;;2.88;2.17;;;;;;;16.56;60.13;100785.16;5050248;27;103878;-51
2022/05/18 05:00:58;;;;;;;2.03;1.88;;;;;;;16.56;60.75;100784.34;5050709;27;102091;-47
2022/05/18 05:03:25;;;;;;;4.07;2.30;;;;;;;16.56;60.77;100778.84;5050444;27;101916;-48
2022/05/18 05:05:52;;;;;;;3.40;1.73;;;;;;;16.56;60.53;100781.59;5052474;27;102736;-50
2022/05/18 05:08:21;;;;;;;1.98;1.75;;;;;;;16.54;60.69;100781.88;5050281;27;104051;-48
2022/05/18 05:10:52;;;;;;;3.22;2.10;;;;;;;16.53;60.92;100785.75;5050857;27;102623;-47
2022/05/18 05:13:18;;;;;;;3.22;2.03;;;;;;;16.54;61.31;100790.13;5045499;27;102419;-47
2022/05/18 05:15:46;;;;;;;4.43;1.75;;;;;;;16.56;60.73;100790.63;5044258;27;102622;-48
2022/05/18 05:18:14;;;;;;;2.50;2.30;;;;;;;16.57;61.01;100792.25;5047491;27;103824;-48
2022/05/18 05:20:42;;;;;;;3.83;2.00;;;;;;;16.56;60.81;100789.84;5047967;27;101993;-47
2022/05/18 05:23:09;;;;;;;4.68;2.40;;;;;;;16.57;61.63;100797.75;5046122;27;102479;-47
2022/05/18 05:25:37;;;;;;;3.08;2.00;;;;;;;16.57;60.91;100796.94;5038493;27;102124;-49
2022/05/18 05:28:06;;;;;;;4.47;2.03;;;;;;;16.57;60.98;100797.75;5037098;27;104076;-49
2022/05/18 05:30:33;;;;;;;3.53;1.95;;;;;;;16.55;61.37;100790.94;5044001;27;102050;-49
2022/05/18 05:32:59;;;;;;;3.35;2.00;;;;;;;16.55;61.37;100789.03;5034592;27;102634;-48
2022/05/18 05:35:26;;;;;;;3.30;2.40;;;;;;;16.56;60.82;100793.38;5043186;27;102181;-47
2022/05/18 05:37:53;;;;;;;5.28;2.05;;;;;;;16.53;60.17;100796.75;5050130;27;103955;-48
2022/05/18 05:40:19;;;;;;;6.28;2.13;;;;;;;16.51;60.12;100793.47;5050098;27;101995;-51
2022/05/18 05:42:47;;;;;;;4.07;2.10;;;;;;;16.49;59.64;100794.94;5030480;27;101893;-48
2022/05/18 05:45:14;;;;;;;49.83;5.07;;;;;;;16.49;59.19;100801.25;5031271;27;102511;-48
2022/05/18 05:47:40;;;;;;;5.53;2.40;;;;;;;16.52;60.07;100800.63;5043395;27;103855;-48
2022/05/18 05:50:09;;;;;;;10.07;3.65;;;;;;;16.50;59.26;100802.06;5050436;27;102353;-48
2022/05/18 05:52:36;;;;;;;4.55;2.90;;;;;;;16.51;58.99;100804.47;5049863;27;102415;-50
2022/05/18 05:55:03;;;;;;;3.53;2.50;;;;;;;16.53;59.73;100812.41;5051467;27;102476;-51
2022/05/18 05:57:30;;;;;;;6.57;2.13;;;;;;;16.53;59.52;100813.22;5050486;27;103939;-48
2022/05/18 06:00:00;;;;;;;7.32;2.30;;;;;;;16.55;59.48;100816.50;5050805;27;102208;-47
2022/05/18 06:02:27;;;;;;;4.18;2.60;;;;;;;16.56;59.81;100818.13;5050345;27;102409;-48
2022/05/18 06:04:55;;;;;;;17.80;2.92;;;;;;;16.57;60.28;100816.97;5051829;27;102418;-47
2022/05/18 06:07:22;;;;;;;5.60;2.70;;;;;;;16.58;60.17;100829.59;5047727;27;104021;-51
2022/05/18 06:09:54;;;;;;;4.78;2.50;;;;;;;16.57;60.20;100822.47;5030953;27;102331;-48
2022/05/18 06:12:20;;;;;;;8.93;2.80;;;;;;;16.58;60.36;100837.03;5035797;27;103113;-47
2022/05/18 06:14:48;;;;;;;7.60;2.40;;;;;;;16.59;59.68;100833.19;5042701;27;102856;-48
2022/05/18 06:17:16;;;;;;;4.47;2.38;;;;;;;16.58;59.67;100821.34;5047710;27;104023;-47
2022/05/18 06:19:43;;;;;;;4.17;2.57;;;;;;;16.56;60.09;100829.09;5048824;27;102627;-48
2022/05/18 06:22:10;;;;;;;4.43;2.53;;;;;;;16.58;59.35;100823.28;5052797;27;102480;-49
2022/05/18 06:24:40;;;;;;;4.07;2.75;;;;;;;16.57;59.24;100833.47;5052837;27;102219;-47
2022/05/18 06:27:07;;;;;;;6.10;2.92;;;;;;;16.56;59.60;100834.59;5046493;27;103943;-48
2022/05/18 06:29:34;;;;;;;4.68;2.38;;;;;;;16.57;58.61;100841.72;5053911;27;102411;-51
2022/05/18 06:32:01;;;;;;;3.38;2.70;;;;;;;16.57;59.02;100838.97;5053670;27;101881;-48
2022/05/18 06:34:28;;;;;;;2.75;2.38;;;;;;;16.57;58.82;100847.22;5052285;27;101995;-48
2022/05/18 06:36:56;;;;;;;7.07;2.28;;;;;;;16.57;58.80;100855.44;5052924;27;104006;-47
2022/05/18 06:39:22;;;;;;;4.00;2.50;;;;;;;16.57;58.51;100862.88;5053263;27;102902;-48
2022/05/18 06:41:49;;;;;;;4.10;3.08;;;;;;;16.56;59.36;100866.75;5051468;27;102116;-49
2022/05/18 06:44:17;;;;;;;4.97;2.58;;;;;;;16.55;58.67;100862.38;5054692;27;102151;-47
2022/05/18 06:46:44;;;;;;;4.17;3.17;;;;;;;16.53;58.30;100867.38;5050426;27;103872;-48
2022/05/18 06:49:12;;;;;;;3.85;2.88;;;;;;;16.52;58.14;100872.06;5043598;27;102460;-50
2022/05/18 06:51:42;;;;;;;3.50;2.80;;;;;;;16.51;58.12;100875.91;5053152;27;102185;-48
2022/05/18 06:54:09;;;;;;;4.18;2.65;;;;;;;16.52;57.94;100883.03;5040057;27;102319;-49
2022/05/18 06:56:40;;;;;;;4.53;3.20;;;;;;;16.55;58.88;100889.84;5049468;27;103984;-48
2022/05/18 06:59:07;;;;;;;3.55;2.80;;;;;;;16.53;58.58;100889.34;5045361;27;102482;-49
2022/05/18 07:01:35;;;;;;;4.43;2.85;;;;;;;16.55;59.00;100887.09;5036168;27;102270;-48
2022/05/18 07:04:03;;;;;;;6.57;3.00;;;;;;;16.54;58.11;100896.47;5052570;27;102160;-47
2022/05/18 07:06:33;;;;;;;5.30;3.00;;;;;;;16.54;58.10;100897.28;5045961;27;106757;-48
2022/05/18 07:09:02;;;;;;;3.63;2.80;;;;;;;16.55;58.96;100900.81;5049235;27;102379;-47
2022/05/18 07:11:29;;;;;;;4.25;3.00;;;;;;;16.54;58.28;100904.69;5050376;27;102528;-48
2022/05/18 07:13:58;;;;;;;6.22;2.88;;;;;;;16.55;58.67;100893.44;5054245;27;102685;-48
2022/05/18 07:16:27;;;;;;;8.80;3.47;;;;;;;16.53;58.14;100895.66;5052021;27;103883;-50
2022/05/18 07:18:53;;;;;;;;;;;;;;;16.53;58.03;100909.38;5041267;27;102038;-49
2022/05/18 07:21:21;;;;;;;6.43;3.85;;;;;;;16.55;58.87;100920.91;5036951;27;102419;-47
2022/05/18 07:23:48;;;;;;;5.30;3.38;;;;;;;16.59;57.85;100921.09;5052127;27;102352;-47
2022/05/18 07:26:18;;;;;;;5.65;3.05;;;;;;;16.59;57.76;100910.09;5044537;27;104045;-56
2022/05/18 07:28:44;;;;;;;12.07;3.85;;;;;;;16.64;57.72;100939.41;5044026;27;102501;-50
2022/05/18 07:31:11;;;;;;;9.05;3.13;;;;;;;16.68;58.04;100923.94;5042484;27;102500;-48
2022/05/18 07:33:40;;;;;;;7.90;3.80;;;;;;;16.68;58.18;100934.91;5047600;27;102556;-48
2022/05/18 07:36:07;;;;;;;12.23;3.60;;;;;;;16.69;57.66;100928.28;5039573;27;104366;-49
2022/05/18 07:38:34;;;;;;;4.97;3.60;;;;;;;16.69;59.36;100931.03;5050652;27;102000;-47
2022/05/18 07:41:02;;;;;;;7.45;3.72;;;;;;;16.68;58.73;100932.16;5052273;27;102290;-48
2022/05/18 07:43:30;;;;;;;5.97;3.90;;;;;;;16.73;58.53;100926.56;5052509;27;102753;-47
2022/05/18 07:45:57;;;;;;;8.17;3.47;;;;;;;16.74;58.60;100936.47;5051978;27;104048;-47
2022/05/18 07:48:24;;;;;;;8.48;3.13;;;;;;;16.73;57.01;100932.06;5047102;27;102253;-47
2022/05/18 07:50:51;;;;;;;6.50;3.08;;;;;;;16.76;58.44;100936.97;5042757;27;102422;-47
2022/05/18 07:53:18;;;;;;;5.03;3.13;;;;;;;16.78;58.46;100932.81;5049732;27;102155;-49
2022/05/18 07:55:45;;;;;;;8.48;3.55;;;;;;;16.79;58.92;100936.34;5052039;27;103589;-47
2022/05/18 07:58:15;;;;;;;4.68;2.83;;;;;;;16.77;57.73;100933.13;5051753;27;102093;-48
2022/05/18 08:00:44;;;;;;;4.88;3.40;;;;;;;16.78;57.21;100932.00;5048657;27;102122;-48
2022/05/18 08:03:12;;;;;;;6.78;3.53;;;;;;;16.79;56.16;100931.66;5048714;27;102331;-46
2022/05/18 08:05:39;;;;;;;3.90;3.17;;;;;;;16.80;58.46;100943.47;5051963;27;103808;-47
2022/05/18 08:08:08;;;;;;;5.18;2.83;;;;;;;16.79;57.53;100941.84;5052657;27;101883;-47
2022/05/18 08:16:08;;;;;;;4.07;2.95;;;;;;;16.83;56.23;100959.34;5051506;27;104004;-50
2022/05/18 08:18:36;;;;;;;3.45;2.83;;;;;;;16.81;57.57;100962.44;5052281;27;102849;-47
2022/05/18 08:21:03;;;;;;;5.97;2.85;;;;;;;16.81;58.54;100945.13;5048757;27;102837;-48
2022/05/18 08:23:30;;;;;;;5.47;2.90;;;;;;;16.79;59.49;100955.59;5050076;27;102141;-47
2022/05/18 08:25:58;;;;;;;4.03;2.90;;;;;;;16.84;55.93;100965.66;5049817;27;103427;-47
2022/05/18 08:28:26;;;;;;;3.17;2.60;;;;;;;16.84;58.75;100961.00;5043117;27;102624;-48
2022/05/18 08:30:55;;;;;;;5.88;2.53;;;;;;;16.80;57.51;100951.72;5050807;27;102416;-47
2022/05/18 08:33:23;;;;;;;3.95;2.55;;;;;;;16.79;56.44;100947.34;5052108;27;102629;-48
2022/05/18 08:35:51;;;;;;;4.95;3.10;;;;;;;16.84;54.90;100966.50;5051356;27;103840;-47
2022/05/18 08:38:19;;;;;;;5.47;3.07;;;;;;;16.84;58.01;100961.00;5050476;27;102604;-48
2022/05/18 08:40:49;;;;;;;3.03;2.47;;;;;;;16.83;58.09;100964.03;5051459;27;102002;-47
2022/05/18 08:43:23;;;;;;;4.55;3.10;;;;;;;16.80;57.03;100965.47;5051742;27;102650;-47
2022/05/18 08:46:00;;;;;;;5.13;3.40;;;;;;;16.80;58.00;100970.97;5053157;27;104115;-48
2022/05/18 08:48:41;;;;;;;5.47;3.30;;;;;;;16.83;56.34;100970.34;5043018;27;102546;-49
2022/05/18 08:51:23;;;;;;;4.75;3.70;;;;;;;16.84;54.62;100977.50;5045493;27;102471;-51
2022/05/18 08:54:00;;;;;;;7.47;3.60;;;;;;;16.85;57.60;100979.13;5050424;27;102183;-47
2022/05/18 08:56:32;;;;;;;6.30;3.45;;;;;;;16.83;58.39;100980.53;5043790;27;104073;-47
2022/05/18 08:59:04;;;;;;;4.22;3.35;;;;;;;16.84;58.70;100980.25;5041879;27;102441;-49
2022/05/18 09:01:40;;;;;;;9.35;4.22;;;;;;;16.86;57.12;100997.22;5044344;27;102108;-47
2022/05/18 09:04:13;;;;;;;10.27;4.25;;;;;;;16.84;56.97;100995.91;5042266;27;102417;-48
2022/05/18 09:06:47;;;;;;;7.35;4.20;;;;;;;16.79;57.61;100988.56;5042366;27;104079;-47
2022/05/18 09:12:06;;;;;;;6.07;4.82;;;;;;;16.84;55.21;100995.91;5042470;27;102113;-48
2022/05/18 09:14:37;;;;;;;6.70;5.38;;;;;;;16.81;57.47;100998.16;5043232;27;102225;-47
2022/05/18 09:17:18;;;;;;;7.38;5.03;;;;;;;16.81;56.40;101000.09;5033249;27;104791;-47
2022/05/18 09:20:03;;;;;;;6.13;5.15;;;;;;;16.79;56.82;101013.31;5048957;27;101950;-47
2022/05/18 09:22:42;;;;;;;7.95;5.95;;;;;;;16.75;58.02;100998.56;5050941;27;101852;-48
2022/05/18 09:25:22;;;;;;;9.50;6.88;;;;;;;16.74;55.08;101010.69;5051457;27;102554;-48
2022/05/18 09:28:08;;;;;;;9.60;6.15;;;;;;;16.75;55.93;101009.56;5050516;27;104108;-49
2022/05/18 09:30:48;;;;;;;9.15;5.97;;;;;;;16.74;57.45;100999.69;5048062;27;102057;-48
2022/05/18 09:33:27;;;;;;;8.50;6.53;;;;;;;16.76;58.53;101013.91;5039842;27;103398;-48
2022/05/18 09:36:24;;;;;;;11.80;6.70;;;;;;;16.75;58.04;101006.81;5044469;27;104553;-47
2022/05/18 09:39:01;;;;;;;10.52;7.57;;;;;;;16.72;59.19;100985.41;5047466;27;103860;-47
2022/05/18 09:41:32;;;;;;;14.60;8.70;;;;;;;16.72;56.86;101007.38;5045747;27;101837;-49
2022/05/18 09:44:07;;;;;;;13.30;8.57;;;;;;;16.73;57.48;101020.84;5045657;27;102079;-48
2022/05/18 09:46:35;;;;;;;11.18;8.57;;;;;;;16.71;56.48;101005.75;5043289;27;102012;-48
2022/05/18 09:49:10;;;;;;;14.95;9.32;;;;;;;16.75;56.97;101009.56;5047162;27;103927;-53
2022/05/18 09:51:39;;;;;;;24.77;9.05;;;;;;;16.77;55.44;101010.88;5045737;27;102138;-51
2022/05/18 09:54:06;;;;;;;17.05;8.55;;;;;;;16.79;56.56;101030.63;5048157;27;102308;-49
2022/05/18 09:56:37;;;;;;;12.40;8.63;;;;;;;16.76;56.92;101022.97;5052736;27;102152;-51
2022/05/18 09:59:16;;;;;;;18.00;9.65;;;;;;;16.73;57.45;101020.00;5048939;27;103806;-51
2022/05/18 10:07:32;;;;;;;16.30;9.35;;;;;;;16.73;55.94;101025.50;5043648;27;102718;-47
2022/05/18 10:10:04;;;;;;;12.10;9.15;;;;;;;16.73;57.37;101025.50;5042210;27;104226;-50
2022/05/18 10:12:36;;;;;;;10.77;8.07;;;;;;;16.72;57.28;101027.44;5050775;27;102381;-51
2022/05/18 10:15:05;;;;;;;12.25;8.77;;;;;;;16.74;58.33;101016.19;5048706;27;102293;-48
2022/05/18 10:17:32;;;;;;;;;;;;;;;16.75;56.54;101037.03;5035051;27;102727;-48
2022/05/18 10:20:06;;;;;;;12.35;8.30;;;;;;;16.75;55.03;101035.09;5034817;27;103924;-51
2022/05/18 10:22:38;;;;;;;10.88;8.27;;;;;;;16.78;56.86;101031.75;5054041;27;102232;-48
2022/05/18 10:25:09;;;;;;;12.07;8.10;;;;;;;16.76;56.70;101046.91;5042501;27;102284;-49
2022/05/18 10:27:38;;;;;;;10.93;7.93;;;;;;;16.71;57.10;101045.03;5051076;27;102308;-48
2022/05/18 10:30:13;;;;;;;10.43;7.57;;;;;;;16.71;57.33;101044.22;5048209;27;104074;-48
2022/05/18 10:32:54;;;;;;;12.20;7.68;;;;;;;16.72;56.49;101034.88;5041491;27;102422;-51
2022/05/18 10:35:47;;;;;;;11.93;7.38;;;;;;;16.71;57.00;101022.25;5049804;27;101993;-48
2022/05/18 10:38:20;;;;;;;12.38;7.45;;;;;;;16.73;58.07;101022.75;5054600;27;102401;-47
2022/05/18 10:40:46;;;;;;;11.18;6.90;;;;;;;16.75;56.68;101034.28;5047392;27;104079;-48
2022/05/18 10:43:33;;;;;;;8.52;6.95;;;;;;;16.73;57.17;101047.47;5047887;27;102089;-49
2022/05/18 10:46:02;;;;;;;9.68;6.13;;;;;;;16.73;57.60;101050.22;5048511;27;103154;-47
2022/05/18 10:48:31;;;;;;;9.75;6.57;;;;;;;16.68;58.34;101042.91;5044297;27;102383;-47
2022/05/18 10:51:03;;;;;;;;;;;;;;;16.71;57.19;101052.47;5042253;27;104095;-50
2022/05/18 10:53:34;;;;;;;7.68;6.20;;;;;;;16.72;57.84;101060.41;5039632;27;101928;-47
2022/05/18 10:56:07;;;;;;;7.43;5.75;;;;;;;16.72;57.48;101056.84;5049033;27;102336;-47
2022/05/18 10:58:39;;;;;;;8.73;5.57;;;;;;;16.70;57.39;101051.66;5040376;27;102976;-47
2022/05/18 11:01:10;;;;;;;8.77;5.47;;;;;;;16.67;57.13;101054.22;5049126;27;104003;-47
2022/05/18 11:03:50;;;;;;;7.32;6.00;;;;;;;16.73;56.17;101055.72;5039086;27;102456;-48
2022/05/18 11:06:20;;;;;;;5.95;5.25;;;;;;;16.72;56.70;101056.84;5046416;27;102584;-47
2022/05/18 11:08:49;;;;;;;6.78;4.68;;;;;;;16.75;57.42;101042.53;5048841;27;101967;-48
2022/05/18 11:11:26;;;;;;;6.35;5.05;;;;;;;16.75;57.67;101045.28;5055891;27;103859;-48
2022/05/18 11:14:03;;;;;;;5.22;4.65;;;;;;;16.76;57.58;101049.66;5038625;27;103086;-48
2022/05/18 11:16:46;;;;;;;6.65;4.75;;;;;;;16.79;56.22;101062.78;5049524;27;102400;-48
2022/05/18 11:19:31;;;;;;;6.05;4.78;;;;;;;16.76;55.93;101066.16;5039311;27;102278;-48
2022/05/18 11:22:14;;;;;;;6.70;4.65;;;;;;;16.73;57.68;101066.72;5052869;27;103959;-47
2022/05/18 11:24:46;;;;;;;5.57;4.70;;;;;;;16.70;57.65;101072.84;5052650;27;102286;-47
2022/05/18 11:27:25;;;;;;;6.45;4.18;;;;;;;16.71;56.71;101079.97;5050058;27;102529;-47
2022/05/18 11:30:01;;;;;;;8.57;4.13;;;;;;;16.68;56.85;101081.38;5045005;27;102377;-47
2022/05/18 11:32:42;;;;;;;4.88;3.70;;;;;;;16.68;55.95;101077.81;5038339;27;104026;-50
2022/05/18 11:35:24;;;;;;;4.97;4.22;;;;;;;16.66;57.08;101082.78;5033945;27;102883;-52
2022/05/18 11:38:16;;;;;;;4.88;4.18;;;;;;;16.65;56.30;101084.72;5049534;27;102582;-49
2022/05/18 11:40:54;;;;;;;4.63;3.88;;;;;;;16.68;55.68;101088.81;5032538;27;102163;-47
2022/05/18 11:43:38;;;;;;;4.13;3.70;;;;;;;16.67;56.19;101070.69;5034361;27;103975;-47
2022/05/18 11:46:19;;;;;;;4.05;3.38;;;;;;;16.68;57.64;101075.06;5052045;27;102004;-48
2022/05/18 11:48:52;;;;;;;3.92;3.47;;;;;;;16.67;58.34;101084.44;5051945;27;102283;-49